createdAt,value
2017-08-15T00:02:23.925Z,100446.76
2017-08-15T00:04:49.988Z,100444.15
2017-08-15T00:07:16.083Z,100438.19
2017-08-15T00:09:42.150Z,100449.44
2017-08-15T00:12:08.186Z,100445.06
2017-08-15T00:14:34.228Z,100446.75
2017-08-15T00:17:00.311Z,100450.94
2017-08-15T00:19:26.383Z,100439.35
2017-08-15T00:21:52.452Z,100435.59
2017-08-15T00:24:19.230Z,100434.33
2017-08-15T00:26:45.306Z,100431.83
2017-08-15T00:29:11.373Z,100426.08
2017-08-15T00:31:37.472Z,100428.69
2017-08-15T00:34:04.304Z,100431.64
2017-08-15T00:36:31.105Z,100433.30
2017-08-15T00:38:57.170Z,100432.14
2017-08-15T00:41:23.965Z,100428.69
2017-08-15T00:43:50.044Z,100418.79
2017-08-15T00:46:16.889Z,100416.59
2017-08-15T00:48:43.686Z,100423.23
2017-08-15T00:51:09.722Z,100429.80
2017-08-15T00:53:36.150Z,100422.92
2017-08-15T00:56:02.187Z,100422.84
2017-08-15T00:58:28.254Z,100422.84
2017-08-15T01:00:54.353Z,100420.57
2017-08-15T01:03:20.404Z,100419.38
2017-08-15T01:05:46.504Z,100423.91
2017-08-15T01:08:13.309Z,100415.70
2017-08-15T01:10:39.369Z,100413.44
2017-08-15T01:13:06.193Z,100415.52
2017-08-15T01:15:32.309Z,100413.41
2017-08-15T01:18:05.451Z,100410.07
2017-08-15T01:20:31.548Z,100405.47
2017-08-15T01:22:57.601Z,100396.30
2017-08-15T01:25:24.411Z,100404.77
2017-08-15T01:27:51.518Z,100401.02
2017-08-15T01:30:17.655Z,100393.88
2017-08-15T01:32:43.724Z,100397.14
2017-08-15T01:35:09.801Z,100397.41
2017-08-15T01:37:47.149Z,100395.03
2017-08-15T01:40:13.302Z,100394.72
2017-08-15T01:42:39.357Z,100388.00
2017-08-15T01:45:05.408Z,100390.42
2017-08-15T01:47:31.508Z,100389.50
2017-08-15T01:49:57.602Z,100384.31
2017-08-15T01:52:23.695Z,100386.05
2017-08-15T01:54:50.502Z,100379.33
2017-08-15T01:57:16.556Z,100376.41
2017-08-15T01:59:42.614Z,100374.46
2017-08-15T02:02:08.674Z,100370.05
2017-08-15T02:04:34.736Z,100372.46
2017-08-15T02:07:01.543Z,100369.47
2017-08-15T02:09:27.593Z,100364.25
2017-08-15T02:11:53.686Z,100367.70
2017-08-15T02:14:19.746Z,100370.38
2017-08-15T02:16:45.903Z,100369.20
2017-08-15T02:19:11.981Z,100365.01
2017-08-15T02:21:38.036Z,100366.27
2017-08-15T02:24:04.860Z,100358.03
2017-08-15T02:26:30.952Z,100360.30
2017-08-15T02:28:57.009Z,100359.88
2017-08-15T02:31:23.066Z,100356.53
2017-08-15T02:33:49.869Z,100357.72
2017-08-15T02:36:15.923Z,100350.92
2017-08-15T02:38:43.523Z,100351.00
2017-08-15T02:41:09.586Z,100349.89
2017-08-15T02:43:35.680Z,100344.09
2017-08-15T02:46:01.725Z,100342.67
2017-08-15T02:48:27.848Z,100347.47
2017-08-15T02:50:53.882Z,100348.66
2017-08-15T02:53:19.949Z,100349.57
2017-08-15T02:55:46.046Z,100345.28
2017-08-15T02:58:12.075Z,100347.89
2017-08-15T03:00:39.651Z,100345.62
2017-08-15T03:03:06.505Z,100339.06
2017-08-15T03:05:32.564Z,100341.86
2017-08-15T03:07:58.879Z,100337.64
2017-08-15T03:10:25.023Z,100339.75
2017-08-15T03:12:51.121Z,100340.07
2017-08-15T03:15:17.175Z,100337.73
2017-08-15T03:17:43.267Z,100335.97
2017-08-15T03:20:09.307Z,100333.05
2017-08-15T03:22:35.433Z,100331.94
2017-08-15T03:25:01.527Z,100328.34
2017-08-15T03:27:28.353Z,100330.84
2017-08-15T03:29:54.443Z,100334.97
2017-08-15T03:32:20.539Z,100330.68
2017-08-15T03:34:46.622Z,100330.18
2017-08-15T03:37:12.707Z,100333.37
2017-08-15T03:39:38.749Z,100327.41
2017-08-15T03:42:04.828Z,100329.36
2017-08-15T03:44:30.919Z,100326.17
2017-08-15T03:46:57.011Z,100328.86
2017-08-15T03:49:23.067Z,100319.78
2017-08-15T03:51:49.139Z,100315.83
2017-08-15T03:54:15.217Z,100310.89
2017-08-15T03:56:41.286Z,100316.67
2017-08-15T03:59:07.336Z,100322.39
2017-08-15T04:01:33.425Z,100316.26
2017-08-15T04:03:59.548Z,100314.26
2017-08-15T04:06:26.341Z,100315.91
2017-08-15T04:08:52.440Z,100319.44
2017-08-15T04:11:18.521Z,100315.68
2017-08-15T04:13:44.585Z,100323.97
2017-08-15T04:16:10.668Z,100315.41
2017-08-15T04:18:36.759Z,100318.44
2017-08-15T04:21:02.837Z,100316.25
2017-08-15T04:23:29.644Z,100321.09
2017-08-15T04:25:55.752Z,100316.39
2017-08-15T04:28:21.861Z,100320.58
2017-08-15T04:30:47.942Z,100324.33
2017-08-15T04:33:13.991Z,100319.31
2017-08-15T04:35:40.811Z,100317.53
2017-08-15T04:38:06.878Z,100319.64
2017-08-15T04:40:32.945Z,100315.67
2017-08-15T04:42:59.055Z,100316.73
2017-08-15T04:45:25.121Z,100315.41
2017-08-15T04:47:51.931Z,100318.31
2017-08-15T04:50:18.051Z,100318.55
2017-08-15T04:52:44.154Z,100315.29
2017-08-15T04:55:10.251Z,100324.38
2017-08-15T04:57:36.357Z,100328.90
2017-08-15T05:00:02.442Z,100325.77
2017-08-15T05:02:28.547Z,100327.70
2017-08-15T05:04:54.628Z,100325.64
2017-08-15T05:07:20.670Z,100326.27
2017-08-15T05:09:47.494Z,100331.56
2017-08-15T05:12:13.590Z,100325.09
2017-08-15T05:14:39.637Z,100323.12
2017-08-15T05:17:05.704Z,100321.39
2017-08-15T05:19:31.796Z,100319.19
2017-08-15T05:21:57.891Z,100328.81
2017-08-15T05:24:23.988Z,100326.00
2017-08-15T05:26:50.054Z,100329.25
2017-08-15T05:29:16.355Z,100334.08
2017-08-15T05:31:42.454Z,100331.44
2017-08-15T05:34:09.278Z,100328.01
2017-08-15T05:36:35.340Z,100330.48
2017-08-15T05:39:01.816Z,100335.00
2017-08-15T05:41:27.902Z,100336.20
2017-08-15T05:43:53.974Z,100328.11
2017-08-15T05:46:20.052Z,100328.02
2017-08-15T05:48:46.117Z,100329.41
2017-08-15T05:51:12.181Z,100331.84
2017-08-15T05:53:38.284Z,100321.23
2017-08-15T05:56:04.530Z,100330.81
2017-08-15T05:58:31.370Z,100325.72
2017-08-15T06:00:58.184Z,100322.06
2017-08-15T06:03:24.276Z,100320.19
2017-08-15T06:05:50.336Z,100322.56
2017-08-15T06:08:16.398Z,100318.31
2017-08-15T06:10:42.490Z,100323.82
2017-08-15T06:13:08.559Z,100323.33
2017-08-15T06:15:34.650Z,100326.63
2017-08-15T06:18:00.718Z,100322.25
2017-08-15T06:20:26.779Z,100315.03
2017-08-15T06:22:52.888Z,100315.45
2017-08-15T06:25:18.951Z,100319.08
2017-08-15T06:27:45.779Z,100316.16
2017-08-15T06:30:11.880Z,100307.92
2017-08-15T06:32:37.937Z,100302.97
2017-08-15T06:35:03.982Z,100303.59
2017-08-15T06:37:30.811Z,100299.69
2017-08-15T06:39:56.884Z,100295.00
2017-08-15T06:42:22.962Z,100290.25
2017-08-15T06:44:49.039Z,100287.34
2017-08-15T06:47:15.076Z,100285.41
2017-08-15T06:49:41.151Z,100285.02
2017-08-15T06:52:07.963Z,100285.32
2017-08-15T06:54:34.034Z,100288.23
2017-08-15T06:57:00.092Z,100286.42
2017-08-15T06:59:26.195Z,100289.06
2017-08-15T07:01:52.242Z,100295.71
2017-08-15T07:04:18.366Z,100303.70
2017-08-15T07:06:44.437Z,100301.09
2017-08-15T07:09:10.476Z,100303.76
2017-08-15T07:11:37.279Z,100298.89
2017-08-15T07:14:03.339Z,100296.19
2017-08-15T07:16:30.147Z,100298.56
2017-08-15T07:18:56.233Z,100301.07
2017-08-15T07:21:22.291Z,100301.50
2017-08-15T07:23:48.358Z,100293.11
2017-08-15T07:26:15.131Z,100285.01
2017-08-15T07:28:41.215Z,100292.96
2017-08-15T07:31:07.310Z,100287.39
2017-08-15T07:33:33.353Z,100282.39
2017-08-15T07:35:59.405Z,100276.30
2017-08-15T07:38:26.208Z,100272.85
2017-08-15T07:40:52.311Z,100269.20
2017-08-15T07:43:18.369Z,100266.30
2017-08-15T07:45:44.445Z,100273.03
2017-08-15T07:48:10.514Z,100266.70
2017-08-15T07:50:36.580Z,100260.28
2017-08-15T07:53:02.640Z,100262.11
2017-08-15T07:55:28.669Z,100261.76
2017-08-15T07:57:54.739Z,100256.53
2017-08-15T08:00:21.555Z,100255.84
2017-08-15T08:02:47.625Z,100252.73
2017-08-15T08:05:13.689Z,100251.00
2017-08-15T08:07:39.766Z,100247.37
2017-08-15T08:10:06.643Z,100240.33
2017-08-15T08:12:32.700Z,100241.30
2017-08-15T08:14:58.761Z,100238.10
2017-08-15T08:17:25.550Z,100240.20
2017-08-15T08:19:51.649Z,100233.37
2017-08-15T08:22:17.684Z,100241.13
2017-08-15T08:24:43.984Z,100232.92
2017-08-15T08:27:10.799Z,100233.55
2017-08-15T08:29:36.877Z,100224.14
2017-08-15T08:32:02.974Z,100225.09
2017-08-15T08:34:29.914Z,100222.80
2017-08-15T08:36:56.741Z,100212.48
2017-08-15T08:39:22.835Z,100218.09
2017-08-15T08:41:48.880Z,100211.05
2017-08-15T08:44:14.924Z,100205.97
2017-08-15T08:46:41.776Z,100203.52
2017-08-15T08:49:08.575Z,100203.47
2017-08-15T08:51:34.635Z,100205.80
2017-08-15T08:54:00.718Z,100189.64
2017-08-15T08:56:26.806Z,100192.64
2017-08-15T08:58:53.585Z,100193.10
2017-08-15T09:01:26.743Z,100191.69
2017-08-15T09:03:52.803Z,100185.44
2017-08-15T09:06:18.887Z,100178.67
2017-08-15T09:08:44.964Z,100179.34
2017-08-15T09:11:11.031Z,100182.34
2017-08-15T09:13:37.901Z,100182.38
2017-08-15T09:16:03.964Z,100180.34
2017-08-15T09:18:30.035Z,100190.38
2017-08-15T09:20:56.113Z,100185.42
2017-08-15T09:23:22.153Z,100198.34
2017-08-15T09:25:48.249Z,100193.77
2017-08-15T09:28:14.320Z,100195.02
2017-08-15T09:30:41.122Z,100198.48
2017-08-15T09:33:07.854Z,100202.45
2017-08-15T09:35:34.800Z,100199.98
2017-08-15T09:38:00.873Z,100201.50
2017-08-15T09:40:27.711Z,100195.44
2017-08-15T09:42:54.519Z,100200.69
2017-08-15T09:45:20.614Z,100197.52
2017-08-15T09:47:46.678Z,100200.86
2017-08-15T09:50:12.776Z,100200.53
2017-08-15T09:52:38.841Z,100196.31
2017-08-15T09:55:04.972Z,100194.74
2017-08-15T09:57:31.069Z,100186.75
2017-08-15T09:59:57.129Z,100193.94
2017-08-15T10:02:23.976Z,100190.08
2017-08-15T10:04:50.788Z,100186.23
2017-08-15T10:07:16.873Z,100193.66
2017-08-15T10:09:42.968Z,100188.30
2017-08-15T10:12:09.818Z,100182.11
2017-08-15T10:14:36.678Z,100179.78
2017-08-15T10:17:02.733Z,100174.54
2017-08-15T10:19:28.793Z,100174.89
2017-08-15T10:21:54.888Z,100174.00
2017-08-15T10:24:20.960Z,100171.94
2017-08-15T10:26:47.774Z,100172.20
2017-08-15T10:29:13.861Z,100173.28
2017-08-15T10:31:39.919Z,100174.09
2017-08-15T10:34:06.013Z,100176.37
2017-08-15T10:36:32.070Z,100177.97
2017-08-15T10:38:58.143Z,100184.70
2017-08-15T10:41:24.293Z,100190.52
2017-08-15T10:43:50.353Z,100198.89
2017-08-15T10:46:16.453Z,100196.91
2017-08-15T10:48:42.577Z,100197.23
2017-08-15T10:51:08.675Z,100193.99
2017-08-15T10:53:34.733Z,100190.31
2017-08-15T10:56:00.794Z,100188.77
2017-08-15T10:58:26.849Z,100188.34
2017-08-15T11:00:52.921Z,100187.98
2017-08-15T11:03:19.007Z,100188.27
2017-08-15T11:05:45.067Z,100189.03
2017-08-15T11:08:11.133Z,100190.02
2017-08-15T11:10:37.243Z,100182.87
2017-08-15T11:13:03.314Z,100184.36
2017-08-15T11:15:29.366Z,100178.20
2017-08-15T11:17:55.453Z,100174.00
2017-08-15T11:20:21.550Z,100169.34
2017-08-15T11:22:47.607Z,100167.28
2017-08-15T11:25:13.679Z,100170.92
2017-08-15T11:27:39.756Z,100164.36
2017-08-15T11:30:05.910Z,100169.62
2017-08-15T11:32:32.045Z,100159.66
2017-08-15T11:34:58.107Z,100156.47
2017-08-15T11:37:24.163Z,100156.11
2017-08-15T11:39:51.082Z,100147.62
2017-08-15T11:42:17.911Z,100151.78
2017-08-15T11:44:43.985Z,100153.50
2017-08-15T11:47:10.094Z,100141.26
2017-08-15T11:49:36.177Z,100137.69
2017-08-15T11:52:02.247Z,100132.19
2017-08-15T11:54:28.301Z,100138.69
2017-08-15T11:56:54.364Z,100135.38
2017-08-15T11:59:20.433Z,100136.11
2017-08-15T12:01:46.527Z,100130.04
2017-08-15T12:04:13.352Z,100130.06
2017-08-15T12:06:39.423Z,100139.34
2017-08-15T12:09:05.552Z,100146.19
2017-08-15T12:11:31.628Z,100150.41
2017-08-15T12:13:57.726Z,100145.36
2017-08-15T12:16:23.772Z,100146.12
2017-08-15T12:18:49.855Z,100147.11
2017-08-15T12:21:15.917Z,100134.28
2017-08-15T12:23:41.998Z,100132.88
2017-08-15T12:26:08.073Z,100125.42
2017-08-15T12:28:34.450Z,100127.91
2017-08-15T12:31:00.651Z,100116.03
2017-08-15T12:33:26.801Z,100117.23
2017-08-15T12:35:53.605Z,100121.38
2017-08-15T12:38:19.690Z,100123.52
2017-08-15T12:40:45.746Z,100129.40
2017-08-15T12:43:11.874Z,100115.58
2017-08-15T12:45:37.999Z,100105.45
2017-08-15T12:48:04.071Z,100108.76
2017-08-15T12:50:30.126Z,100097.77
2017-08-15T12:52:56.176Z,100093.61
2017-08-15T12:55:22.258Z,100091.70
2017-08-15T12:57:48.340Z,100082.90
2017-08-15T13:00:14.424Z,100084.98
2017-08-15T13:02:40.622Z,100083.95
2017-08-15T13:05:07.448Z,100089.33
2017-08-15T13:07:33.506Z,100090.84
2017-08-15T13:09:59.630Z,100090.64
2017-08-15T13:12:25.706Z,100091.55
2017-08-15T13:14:51.770Z,100094.30
2017-08-15T13:17:17.845Z,100090.55
2017-08-15T13:19:43.944Z,100091.38
2017-08-15T13:22:10.102Z,100085.70
2017-08-15T13:24:36.192Z,100080.72
2017-08-15T13:27:02.295Z,100079.38
2017-08-15T13:29:29.077Z,100072.80
2017-08-15T13:31:55.146Z,100067.28
2017-08-15T13:34:21.344Z,100061.87
2017-08-15T13:36:47.471Z,100054.19
2017-08-15T13:39:13.542Z,100061.78
2017-08-15T13:41:39.630Z,100067.53
2017-08-15T13:44:05.692Z,100067.69
2017-08-15T13:46:32.526Z,100059.26
2017-08-15T13:48:59.392Z,100065.34
2017-08-15T13:51:25.437Z,100062.88
2017-08-15T13:53:51.554Z,100063.65
2017-08-15T13:56:17.665Z,100066.83
2017-08-15T13:58:43.727Z,100068.94
2017-08-15T14:01:09.832Z,100066.87
2017-08-15T14:03:35.898Z,100062.31
2017-08-15T14:06:01.973Z,100056.00
2017-08-15T14:08:28.072Z,100055.33
2017-08-15T14:10:54.922Z,100063.98
2017-08-15T14:13:21.758Z,100055.73
2017-08-15T14:15:48.593Z,100053.23
2017-08-15T14:18:14.689Z,100047.91
2017-08-15T14:20:40.736Z,100053.72
2017-08-15T14:23:06.894Z,100042.52
2017-08-15T14:25:33.790Z,100034.60
2017-08-15T14:27:59.911Z,100033.40
2017-08-15T14:30:25.991Z,100041.39
2017-08-15T14:32:52.144Z,100028.22
2017-08-15T14:35:18.251Z,100026.56
2017-08-15T14:37:44.337Z,100027.53
2017-08-15T14:40:10.444Z,100030.16
2017-08-15T14:42:36.543Z,100024.06
2017-08-15T14:45:02.683Z,100020.75
2017-08-15T14:47:28.826Z,100017.47
2017-08-15T14:49:54.901Z,100029.47
2017-08-15T14:52:20.993Z,100023.66
2017-08-15T14:54:47.120Z,100019.54
2017-08-15T14:57:13.229Z,100017.36
2017-08-15T14:59:39.327Z,100017.52
2017-08-15T15:02:05.511Z,100020.39
2017-08-15T15:04:32.377Z,100010.20
2017-08-15T15:06:58.465Z,100013.70
2017-08-15T15:09:24.589Z,100021.34
2017-08-15T15:11:50.751Z,100019.86
2017-08-15T15:14:17.591Z,100012.30
2017-08-15T15:16:44.517Z,100012.70
2017-08-15T15:19:10.638Z,100016.70
2017-08-15T15:21:36.746Z,100018.73
2017-08-15T15:24:02.880Z,100014.78
2017-08-15T15:26:29.008Z,100011.31
2017-08-15T15:28:55.139Z,100008.68
2017-08-15T15:31:23.544Z,100005.92
2017-08-15T15:33:49.738Z,100005.20
2017-08-15T15:36:15.825Z,100008.45
2017-08-15T15:38:41.943Z,100011.91
2017-08-15T15:41:08.126Z,100007.25
2017-08-15T15:43:34.327Z,100004.59
2017-08-15T15:46:00.452Z,100009.84
2017-08-15T15:48:26.619Z,100009.98
2017-08-15T15:50:52.812Z,100001.97
2017-08-15T15:53:18.966Z,100003.78
2017-08-15T15:55:45.156Z,100003.39
2017-08-15T15:58:11.308Z,99999.97
2017-08-15T16:00:37.412Z,100012.42
2017-08-15T16:03:03.532Z,100000.85
2017-08-15T16:05:29.686Z,99993.47
2017-08-15T16:07:56.662Z,99996.66
2017-08-15T16:10:23.687Z,100000.16
2017-08-15T16:12:49.858Z,100000.11
2017-08-15T16:15:15.958Z,99994.89
2017-08-15T16:17:42.098Z,99999.72
2017-08-15T16:20:08.914Z,99990.69
2017-08-15T16:22:34.972Z,99987.27
2017-08-15T16:25:01.824Z,99984.72
2017-08-15T16:27:27.906Z,99992.36
2017-08-15T16:29:53.969Z,100001.78
2017-08-15T16:32:20.088Z,99994.11
2017-08-15T16:34:46.982Z,99986.44
2017-08-15T16:37:13.168Z,99989.86
2017-08-15T16:39:39.274Z,99980.41
2017-08-15T16:42:06.305Z,99975.15
2017-08-15T16:44:32.599Z,99976.83
2017-08-15T16:46:58.775Z,99976.36
2017-08-15T16:49:26.263Z,99977.54
2017-08-15T16:51:52.345Z,99971.42
2017-08-15T16:54:18.548Z,99963.88
2017-08-15T16:56:44.696Z,99966.45
2017-08-15T16:59:10.903Z,99964.98
2017-08-15T17:01:37.253Z,99966.69
2017-08-15T17:04:03.390Z,99971.66
2017-08-15T17:06:29.591Z,99961.13
2017-08-15T17:08:56.343Z,99961.06
2017-08-15T17:11:22.481Z,99961.52
2017-08-15T17:13:48.609Z,99964.45
2017-08-15T17:16:14.714Z,99960.72
2017-08-15T17:18:40.846Z,99957.42
2017-08-15T17:21:06.996Z,99957.31
2017-08-15T17:23:33.352Z,99951.62
2017-08-15T17:25:59.527Z,99953.33
2017-08-15T17:28:25.590Z,99954.34
2017-08-15T17:30:52.469Z,99960.76
2017-08-15T17:33:18.579Z,99957.88
2017-08-15T17:35:44.638Z,99952.95
2017-08-15T17:38:10.704Z,99955.29
2017-08-15T17:40:36.786Z,99955.66
2017-08-15T17:43:02.840Z,99951.27
2017-08-15T17:45:29.057Z,99953.16
2017-08-15T17:47:56.136Z,99955.09
2017-08-15T17:50:22.194Z,99962.55
2017-08-15T17:52:48.288Z,99955.73
2017-08-15T17:55:15.128Z,99956.33
2017-08-15T17:57:42.198Z,99962.08
2017-08-15T18:00:08.314Z,99964.17
2017-08-15T18:02:35.171Z,99963.82
2017-08-15T18:05:01.266Z,99969.77
2017-08-15T18:07:27.380Z,99970.92
2017-08-15T18:09:53.470Z,99967.48
2017-08-15T18:12:19.725Z,99965.77
2017-08-15T18:14:45.793Z,99963.09
2017-08-15T18:17:12.603Z,99958.11
2017-08-15T18:19:38.733Z,99955.43
2017-08-15T18:22:04.806Z,99947.96
2017-08-15T18:24:30.863Z,99953.06
2017-08-15T18:26:56.976Z,99949.28
2017-08-15T18:29:23.059Z,99949.77
2017-08-15T18:31:49.863Z,99949.55
2017-08-15T18:34:15.941Z,99952.44
2017-08-15T18:36:42.002Z,99949.88
2017-08-15T18:39:08.088Z,99942.46
2017-08-15T18:41:34.241Z,99944.37
2017-08-15T18:44:00.379Z,99952.95
2017-08-15T18:46:26.463Z,99950.09
2017-08-15T18:48:53.363Z,99943.64
2017-08-15T18:51:19.444Z,99954.53
2017-08-15T18:53:45.513Z,99953.05
2017-08-15T18:56:11.607Z,99952.64
2017-08-15T18:58:37.708Z,99954.22
2017-08-15T19:01:04.683Z,99954.63
2017-08-15T19:03:30.789Z,99946.23
2017-08-15T19:05:57.605Z,99946.93
2017-08-15T19:08:23.710Z,99947.05
2017-08-15T19:10:49.768Z,99949.07
2017-08-15T19:13:16.609Z,99951.27
2017-08-15T19:15:43.496Z,99949.88
2017-08-15T19:18:10.333Z,99945.55
2017-08-15T19:20:36.616Z,99945.29
2017-08-15T19:23:02.952Z,99944.48
2017-08-15T19:25:29.004Z,99940.05
2017-08-15T19:27:55.088Z,99943.64
2017-08-15T19:30:21.187Z,99945.14
2017-08-15T19:32:47.285Z,99938.97
2017-08-15T19:35:13.419Z,99930.47
2017-08-15T19:37:39.647Z,99933.13
2017-08-15T19:40:05.833Z,99933.13
2017-08-15T19:42:32.154Z,99928.88
2017-08-15T19:44:58.331Z,99936.30
2017-08-15T19:47:24.419Z,99931.59
2017-08-15T19:49:50.534Z,99924.76
2017-08-15T19:52:16.721Z,99928.73
2017-08-15T19:54:42.832Z,99918.57
2017-08-15T19:57:08.938Z,99927.84
2017-08-15T19:59:35.736Z,99918.66
2017-08-15T20:02:01.824Z,99924.18
2017-08-15T20:04:27.926Z,99921.92
2017-08-15T20:06:55.646Z,99932.66
2017-08-15T20:09:21.738Z,99928.31
2017-08-15T20:11:47.830Z,99934.53
2017-08-15T20:14:13.993Z,99935.07
2017-08-15T20:16:40.141Z,99941.30
2017-08-15T20:19:06.425Z,99951.84
2017-08-15T20:21:33.343Z,99958.41
2017-08-15T20:23:59.499Z,99958.88
2017-08-15T20:26:26.454Z,99956.20
2017-08-15T20:28:53.391Z,99954.06
2017-08-15T20:31:20.269Z,99960.55
2017-08-15T20:33:46.371Z,99962.26
2017-08-15T20:36:13.219Z,99962.47
2017-08-15T20:38:39.324Z,99957.08
2017-08-15T20:41:06.122Z,99956.53
2017-08-15T20:43:32.191Z,99962.32
2017-08-15T20:45:58.273Z,99962.70
2017-08-15T20:48:24.371Z,99958.66
2017-08-15T20:50:50.529Z,99966.31
2017-08-15T20:53:16.685Z,99971.75
2017-08-15T20:55:42.779Z,99967.81
2017-08-15T20:58:08.862Z,99973.67
2017-08-15T21:00:35.685Z,99973.73
2017-08-15T21:03:01.765Z,99973.78
2017-08-15T21:05:27.895Z,99977.02
2017-08-15T21:07:53.961Z,99971.93
2017-08-15T21:10:20.079Z,99976.59
2017-08-15T21:12:46.156Z,99971.77
2017-08-15T21:15:12.227Z,99974.88
2017-08-15T21:17:38.379Z,99976.10
2017-08-15T21:20:05.217Z,99973.02
2017-08-15T21:22:32.038Z,99967.55
2017-08-15T21:24:58.170Z,99968.09
2017-08-15T21:27:24.239Z,99979.45
2017-08-15T21:29:50.316Z,99974.95
2017-08-15T21:32:16.695Z,99983.27
2017-08-15T21:34:43.782Z,99979.91
2017-08-15T21:37:09.887Z,99979.41
2017-08-15T21:39:35.978Z,99973.94
2017-08-15T21:42:02.808Z,99972.63
2017-08-15T21:44:28.886Z,99968.95
2017-08-15T21:46:54.969Z,99974.83
2017-08-15T21:49:21.801Z,99974.59
2017-08-15T21:51:47.904Z,99970.28
2017-08-15T21:54:13.975Z,99970.70
2017-08-15T21:56:40.073Z,99970.32
2017-08-15T21:59:06.189Z,99967.64
2017-08-15T22:01:38.400Z,99962.67
2017-08-15T22:04:04.476Z,99962.81
2017-08-15T22:06:30.559Z,99961.90
2017-08-15T22:08:56.648Z,99963.95
2017-08-15T22:11:22.764Z,99960.65
2017-08-15T22:13:48.833Z,99959.40
2017-08-15T22:16:14.912Z,99964.83
2017-08-15T22:18:41.001Z,99970.39
2017-08-15T22:21:08.006Z,99961.83
2017-08-15T22:23:34.835Z,99957.76
2017-08-15T22:26:00.941Z,99964.75
2017-08-15T22:28:27.001Z,99969.31
2017-08-15T22:30:53.844Z,99968.52
2017-08-15T22:33:20.689Z,99971.44
2017-08-15T22:35:47.599Z,99969.66
2017-08-15T22:38:13.675Z,99974.70
2017-08-15T22:40:39.769Z,99976.31
2017-08-15T22:43:05.849Z,99979.13
2017-08-15T22:45:31.961Z,99985.59
2017-08-15T22:47:58.059Z,100013.98
2017-08-15T22:50:24.926Z,100033.53
2017-08-15T22:52:51.025Z,100024.04
2017-08-15T22:55:17.842Z,100024.50
2017-08-15T22:57:43.897Z,100028.64
2017-08-15T23:00:10.734Z,100033.88
2017-08-15T23:02:37.569Z,100032.56
2017-08-15T23:05:03.659Z,100033.02
2017-08-15T23:07:29.845Z,100034.28
2017-08-15T23:09:56.670Z,100038.77
2017-08-15T23:12:22.762Z,100035.45
2017-08-15T23:14:48.844Z,100037.61
2017-08-15T23:17:14.936Z,100040.43
2017-08-15T23:19:41.062Z,100032.95
2017-08-15T23:22:07.100Z,100036.87
2017-08-15T23:24:34.003Z,100044.70
2017-08-15T23:27:01.102Z,100042.92
2017-08-15T23:29:27.957Z,100057.44
2017-08-15T23:31:54.049Z,100059.45
2017-08-15T23:34:20.141Z,100062.86
2017-08-15T23:36:46.217Z,100054.19
2017-08-15T23:39:13.070Z,100053.36
2017-08-15T23:41:39.900Z,100048.90
2017-08-15T23:44:06.686Z,100043.41
2017-08-15T23:46:32.774Z,100046.95
2017-08-15T23:48:59.568Z,100051.13
2017-08-15T23:51:25.623Z,100040.81
2017-08-15T23:53:51.697Z,100041.47
2017-08-15T23:56:17.758Z,100050.95
2017-08-15T23:58:43.820Z,100052.57
